Terminal Aerodrome Forecast
Issued by NWS Wilmington, OH

Current Version | Previous Version | Text Only | Print | Product List | Glossary Off
Versions: 1 2 3 4 5 6 7 8 9 10 11 12 13 14

000
FTUS41 KILN 291100
TAFDAY
TAF
KDAY 291120Z 2912/3012 13007KT P6SM SCT250
     FM291800 13007KT P6SM FEW035 SCT100
     FM300000 15006KT P6SM FEW050 BKN200=

USA.gov is the U.S. government's official web portal to all federal, state and local government web resources and services.